Hauptseite
METAR-TAF:

METAR-TAF

Flughäfen :

Militärflugplatz Beauvechain

Beauvechain, Belgien

Breite: 50-45N, Länge: 004-46E, Höhe: 105 m

Beobachtung

Neuester Wetterbericht von vor 47 Minuten, um 02:25 UTC
Wind 4 kt aus Ost
Temperatur 1°C
Luftfeuchtigkeit 93%
Luftdruck 1028 hPa
Sichtweite: 9000 m

METAR: EBBE 170225Z AUTO 09004KT 9000 NCD 01/M00 Q1028 BLU

Zeit: 04:12 (03:12 UTC)

Prognose

Neuester Wetterbericht von vor 15 Stunden und 31 Minuten, um 11:41 UTC
Gültige Prognose vom 16 um 13 UTC bis 16 um 22 UTC
Wind 8 kt aus Ost/Nordost
Sichtweite 10 km oder mehr
Leicht bewölkt in der Höhe von 22000 ft

TAF: EBBE 161141Z 1613/1622 07008KT 9999 FEW220

Wetterbeobachtungen und Prognosen von mehr als 4000 Flughäfen (METAR und TAF Bericht).

Die verfügbaren Stationen werden durch gelbe und rote Markierungen auf der Karte dargestellt.

Führen Sie die Maus auf sie, um den Namen der Station zu sehen.

Darauf klicken, um die Beobachtung von Wetterbeobachtungen und Prognosen zu sehen.

Um die Karte zu ändern : klicken Sie auf den grünen Tasten mit einem schwarzen Kreuz Zum Vergrößern, auf den grünen Button mit einem Gedankenstrich zu verkleinern, oder auf die grünen Pfeile für benachbarte Karten.


METAR-TAF: